createdAt,value
2018-11-13T00:00:19.821Z,15.97
2018-11-13T00:02:47.501Z,14.97
2018-11-13T00:05:14.584Z,14.67
2018-11-13T00:07:41.937Z,13.90
2018-11-13T00:10:10.027Z,13.77
2018-11-13T00:12:37.141Z,15.00
2018-11-13T00:15:04.296Z,13.97
2018-11-13T00:17:31.437Z,13.40
2018-11-13T00:19:58.555Z,12.60
2018-11-13T00:22:25.652Z,12.53
2018-11-13T00:24:52.726Z,12.43
2018-11-13T00:27:19.886Z,12.77
2018-11-13T00:29:46.932Z,12.20
2018-11-13T00:32:14.016Z,12.97
2018-11-13T00:34:41.161Z,11.70
2018-11-13T00:37:08.252Z,11.73
2018-11-13T00:39:35.342Z,12.87
2018-11-13T00:42:02.436Z,11.20
2018-11-13T00:44:29.527Z,10.63
2018-11-13T00:46:56.610Z,10.73
2018-11-13T00:49:23.873Z,10.80
2018-11-13T00:51:50.787Z,10.40
2018-11-13T00:54:17.860Z,9.90
2018-11-13T00:56:45.040Z,10.10
2018-11-13T00:59:12.146Z,10.03
2018-11-13T01:01:39.227Z,10.17
2018-11-13T01:04:06.369Z,9.40
2018-11-13T01:06:33.472Z,10.20
2018-11-13T01:09:00.565Z,8.90
2018-11-13T01:11:27.657Z,8.93
2018-11-13T01:13:54.761Z,8.30
2018-11-13T01:16:21.868Z,8.70
2018-11-13T01:18:49.000Z,9.30
2018-11-13T01:21:16.096Z,9.50
2018-11-13T01:23:43.194Z,9.03
2018-11-13T01:26:10.292Z,8.67
2018-11-13T01:28:37.396Z,8.90
2018-11-13T01:31:05.319Z,9.33
2018-11-13T01:33:32.400Z,8.93
2018-11-13T01:35:59.488Z,8.70
2018-11-13T01:38:26.576Z,9.57
2018-11-13T01:40:53.640Z,8.70
2018-11-13T01:43:20.716Z,10.07
2018-11-13T01:45:47.823Z,9.53
2018-11-13T01:48:14.900Z,10.27
2018-11-13T01:50:41.993Z,10.00
2018-11-13T01:53:09.111Z,10.37
2018-11-13T01:55:36.210Z,9.93
2018-11-13T01:58:03.329Z,9.83
2018-11-13T02:00:30.403Z,9.77
2018-11-13T02:02:57.482Z,10.03
2018-11-13T02:05:25.373Z,9.33
2018-11-13T02:07:53.420Z,9.63
2018-11-13T02:10:20.703Z,10.40
2018-11-13T02:12:48.132Z,10.60
2018-11-13T02:15:15.807Z,10.90
2018-11-13T02:17:42.914Z,10.30
2018-11-13T02:20:13.594Z,9.50
2018-11-13T02:22:40.817Z,10.87
2018-11-13T02:25:10.144Z,10.63
2018-11-13T02:27:37.253Z,10.97
2018-11-13T02:30:05.312Z,10.20
2018-11-13T02:32:32.408Z,10.80
2018-11-13T02:34:59.504Z,11.33
2018-11-13T02:37:26.592Z,10.80
2018-11-13T02:39:53.684Z,10.13
2018-11-13T02:42:20.820Z,10.70
2018-11-13T02:44:47.884Z,10.97
2018-11-13T02:47:14.980Z,10.60
2018-11-13T02:49:42.248Z,10.40
2018-11-13T02:52:09.332Z,11.23
2018-11-13T02:54:36.423Z,10.97
2018-11-13T02:57:03.556Z,11.23
2018-11-13T02:59:30.624Z,11.67
2018-11-13T03:01:57.692Z,10.53
2018-11-13T03:04:24.773Z,11.17
2018-11-13T03:06:51.848Z,11.20
2018-11-13T03:09:18.970Z,10.60
2018-11-13T03:11:46.048Z,11.33
2018-11-13T03:14:13.125Z,10.90
2018-11-13T03:16:40.229Z,11.00
2018-11-13T03:19:07.328Z,10.97
2018-11-13T03:21:34.396Z,10.60
2018-11-13T03:24:01.598Z,10.90
2018-11-13T03:26:28.668Z,11.90
2018-11-13T03:28:55.772Z,11.60
2018-11-13T03:31:22.945Z,11.93
2018-11-13T03:33:49.953Z,11.83
2018-11-13T03:36:17.039Z,11.63
2018-11-13T03:38:44.136Z,11.83
2018-11-13T03:41:11.244Z,11.43
2018-11-13T03:43:38.305Z,11.50
2018-11-13T03:46:05.412Z,11.33
2018-11-13T03:48:32.845Z,11.57
2018-11-13T03:50:59.924Z,12.80
2018-11-13T03:53:27.004Z,11.80
2018-11-13T03:55:54.165Z,12.30
2018-11-13T03:58:21.283Z,13.50
2018-11-13T04:00:48.364Z,11.97
2018-11-13T04:03:15.455Z,13.40
2018-11-13T04:05:42.525Z,13.53
2018-11-13T04:08:09.643Z,13.17
2018-11-13T04:10:36.732Z,13.57
2018-11-13T04:13:04.198Z,13.00
2018-11-13T04:15:31.320Z,13.47
2018-11-13T04:17:58.405Z,13.97
2018-11-13T04:20:25.500Z,13.17
2018-11-13T04:22:52.588Z,14.27
2018-11-13T04:25:19.711Z,13.83
2018-11-13T04:27:46.808Z,14.07
2018-11-13T04:30:16.609Z,14.13
2018-11-13T04:32:43.769Z,14.03
2018-11-13T04:35:12.060Z,15.87
2018-11-13T04:37:39.153Z,13.77
2018-11-13T04:40:10.432Z,15.13
2018-11-13T04:42:37.524Z,15.57
2018-11-13T04:45:06.474Z,15.17
2018-11-13T04:47:33.556Z,15.57
2018-11-13T04:50:00.644Z,16.67
2018-11-13T04:52:27.728Z,15.87
2018-11-13T04:54:54.800Z,16.30
2018-11-13T04:57:21.892Z,16.87
2018-11-13T04:59:48.992Z,15.50
2018-11-13T05:02:16.106Z,15.37
2018-11-13T05:04:43.197Z,16.57
2018-11-13T05:07:10.304Z,16.40
2018-11-13T05:09:37.388Z,16.00
2018-11-13T05:12:04.548Z,16.70
2018-11-13T05:14:31.645Z,15.70
2018-11-13T05:16:58.736Z,16.93
2018-11-13T05:19:25.837Z,16.70
2018-11-13T05:21:52.911Z,17.17
2018-11-13T05:24:19.976Z,16.83
2018-11-13T05:26:47.068Z,16.83
2018-11-13T05:29:14.208Z,17.53
2018-11-13T05:31:41.299Z,17.27
2018-11-13T05:34:08.396Z,17.03
2018-11-13T05:36:35.513Z,17.60
2018-11-13T05:39:03.932Z,17.93
2018-11-13T05:41:31.115Z,17.07
2018-11-13T05:43:58.128Z,17.50
2018-11-13T05:46:25.216Z,16.70
2018-11-13T05:48:52.285Z,17.53
2018-11-13T05:51:19.388Z,16.37
2018-11-13T05:53:46.464Z,16.60
2018-11-13T05:56:13.556Z,17.57
2018-11-13T05:58:40.680Z,16.93
2018-11-13T06:01:08.046Z,18.27
2018-11-13T06:03:35.145Z,16.13
2018-11-13T06:06:02.241Z,17.67
2018-11-13T06:08:29.383Z,17.63
2018-11-13T06:10:56.413Z,16.83
2018-11-13T06:13:23.493Z,16.30
2018-11-13T06:15:50.592Z,15.77
2018-11-13T06:18:17.769Z,15.57
2018-11-13T06:20:44.829Z,16.27
2018-11-13T06:23:11.955Z,15.73
2018-11-13T06:25:39.032Z,15.60
2018-11-13T06:28:06.124Z,15.13
2018-11-13T06:30:33.222Z,15.87
2018-11-13T06:33:00.320Z,15.53
2018-11-13T06:35:27.404Z,14.77
2018-11-13T06:37:54.491Z,16.10
2018-11-13T06:40:21.620Z,14.60
2018-11-13T06:42:48.708Z,14.07
2018-11-13T06:45:18.108Z,14.67
2018-11-13T06:47:45.960Z,15.13
2018-11-13T06:50:13.080Z,15.50
2018-11-13T06:52:40.238Z,15.20
2018-11-13T06:55:41.980Z,15.13
2018-11-13T06:58:09.051Z,14.20
2018-11-13T07:00:36.149Z,14.60
2018-11-13T07:03:03.269Z,14.60
2018-11-13T07:05:30.377Z,15.07
2018-11-13T07:07:57.478Z,15.00
2018-11-13T07:10:25.645Z,15.10
2018-11-13T07:12:53.514Z,15.03
2018-11-13T07:15:22.822Z,15.67
2018-11-13T07:17:51.309Z,14.70
2018-11-13T07:20:19.576Z,14.95
2018-11-13T07:22:46.708Z,13.87
2018-11-13T07:25:13.888Z,13.83
2018-11-13T07:27:41.671Z,14.50
2018-11-13T07:30:12.319Z,13.77
2018-11-13T07:32:39.932Z,13.33
2018-11-13T07:35:08.945Z,14.20
2018-11-13T07:37:36.308Z,13.60
2018-11-13T07:40:03.552Z,12.90
2018-11-13T07:42:30.629Z,12.37
2018-11-13T07:44:57.721Z,12.67
2018-11-13T07:47:25.011Z,12.63
2018-11-13T07:49:51.926Z,10.90
2018-11-13T07:52:19.021Z,11.40
2018-11-13T07:54:46.105Z,11.00
2018-11-13T07:57:13.217Z,10.70
2018-11-13T07:59:40.336Z,10.20
2018-11-13T08:02:07.444Z,9.50
2018-11-13T08:04:35.241Z,9.43
2018-11-13T08:07:02.706Z,9.33
2018-11-13T08:09:29.796Z,9.13
2018-11-13T08:11:56.924Z,9.10
2018-11-13T08:14:24.028Z,8.20
2018-11-13T08:16:51.112Z,8.10
2018-11-13T08:19:18.209Z,8.07
2018-11-13T08:21:45.348Z,7.90
2018-11-13T08:24:12.425Z,7.17
2018-11-13T08:26:39.505Z,7.43
2018-11-13T08:29:06.680Z,7.60
2018-11-13T08:31:33.791Z,7.40
2018-11-13T08:34:00.877Z,7.20
2018-11-13T08:36:27.977Z,6.70
2018-11-13T08:38:55.063Z,7.50
2018-11-13T08:41:22.153Z,6.80
2018-11-13T08:43:49.294Z,6.70
2018-11-13T08:46:16.372Z,5.50
2018-11-13T08:48:43.465Z,5.93
2018-11-13T08:51:10.575Z,5.73
2018-11-13T08:53:37.652Z,6.33
2018-11-13T08:56:04.809Z,5.85
2018-11-13T08:58:32.510Z,5.27
2018-11-13T09:00:59.544Z,5.53
2018-11-13T09:03:26.648Z,5.50
2018-11-13T09:05:53.769Z,5.60
2018-11-13T09:08:20.852Z,5.30
2018-11-13T09:10:47.923Z,5.53
2018-11-13T09:13:14.992Z,5.47
2018-11-13T09:15:42.101Z,6.00
2018-11-13T09:18:09.245Z,5.60
2018-11-13T09:20:36.305Z,5.70
2018-11-13T09:23:03.436Z,5.60
2018-11-13T09:25:30.544Z,6.03
2018-11-13T09:27:57.625Z,5.67
2018-11-13T09:30:25.561Z,5.90
2018-11-13T09:32:52.569Z,6.07
2018-11-13T09:35:19.900Z,5.97
2018-11-13T09:37:47.000Z,5.87
2018-11-13T09:40:16.292Z,5.63
2018-11-13T09:42:44.321Z,5.37
2018-11-13T09:45:12.392Z,5.23
2018-11-13T09:47:39.871Z,5.00
2018-11-13T09:50:08.824Z,5.60
2018-11-13T09:52:36.081Z,5.17
2018-11-13T09:55:04.538Z,4.87
2018-11-13T09:57:31.617Z,4.90
2018-11-13T09:59:58.769Z,5.20
2018-11-13T10:02:26.621Z,4.87
2018-11-13T10:04:53.823Z,4.83
2018-11-13T10:07:19.992Z,4.40
2018-11-13T10:09:47.102Z,4.30
2018-11-13T10:12:14.208Z,4.40
2018-11-13T10:14:41.289Z,4.65
2018-11-13T10:17:08.523Z,4.00
2018-11-13T10:19:35.557Z,4.13
2018-11-13T10:22:02.660Z,3.60
2018-11-13T10:24:29.813Z,4.10
2018-11-13T10:26:56.940Z,3.77
2018-11-13T10:29:23.981Z,4.20
2018-11-13T10:31:51.080Z,3.60
2018-11-13T10:34:18.165Z,3.97
2018-11-13T10:36:45.277Z,3.27
2018-11-13T10:39:12.369Z,3.43
2018-11-13T10:41:39.471Z,3.60
2018-11-13T10:44:06.572Z,3.40
2018-11-13T10:46:33.664Z,3.63
2018-11-13T10:49:01.596Z,3.93
2018-11-13T10:51:28.656Z,3.20
2018-11-13T10:53:55.824Z,3.20
2018-11-13T10:56:22.966Z,2.90
2018-11-13T10:58:50.742Z,2.90
2018-11-13T11:01:23.670Z,2.93
2018-11-13T11:04:00.243Z,3.30
2018-11-13T11:06:28.932Z,2.90
2018-11-13T11:08:56.020Z,2.50
2018-11-13T11:11:23.208Z,2.83
2018-11-13T11:13:50.329Z,2.63
2018-11-13T11:16:17.307Z,2.60
2018-11-13T11:18:44.472Z,2.10
2018-11-13T11:21:11.509Z,2.30
2018-11-13T11:23:38.697Z,2.27
2018-11-13T11:26:05.808Z,2.60
2018-11-13T11:28:32.897Z,2.33
2018-11-13T11:31:00.019Z,2.40
2018-11-13T11:33:27.093Z,2.83
2018-11-13T11:35:54.173Z,2.60
2018-11-13T11:38:21.247Z,3.07
2018-11-13T11:40:48.353Z,2.50
2018-11-13T11:43:15.486Z,2.53
2018-11-13T11:45:42.533Z,2.57
2018-11-13T11:48:09.622Z,2.50
2018-11-13T11:50:36.769Z,2.73
2018-11-13T11:53:03.884Z,2.80
2018-11-13T11:55:30.960Z,2.83
2018-11-13T11:57:58.064Z,2.87
2018-11-13T12:00:31.050Z,2.80
2018-11-13T12:02:58.133Z,2.90
2018-11-13T12:05:25.233Z,2.67
2018-11-13T12:07:52.310Z,3.10
2018-11-13T12:10:19.410Z,2.80
2018-11-13T12:12:46.508Z,2.57
2018-11-13T12:15:13.737Z,2.60
2018-11-13T12:17:41.312Z,2.70
2018-11-13T12:20:10.025Z,3.33
2018-11-13T12:22:37.112Z,2.40
2018-11-13T12:25:06.404Z,2.80
2018-11-13T12:27:33.485Z,2.30
2018-11-13T12:30:00.578Z,2.40
2018-11-13T12:32:27.663Z,2.30
2018-11-13T12:34:54.757Z,2.20
2018-11-13T12:37:21.868Z,2.20
2018-11-13T12:39:48.997Z,2.00
2018-11-13T12:42:16.114Z,2.40
2018-11-13T12:44:43.188Z,2.20
2018-11-13T12:47:10.287Z,2.20
2018-11-13T12:49:37.389Z,2.00
2018-11-13T12:52:10.192Z,2.47
2018-11-13T12:54:37.265Z,2.40
2018-11-13T12:57:04.544Z,2.30
2018-11-13T12:59:31.640Z,1.90
2018-11-13T13:01:58.779Z,2.30
2018-11-13T13:04:25.836Z,2.10
2018-11-13T13:06:52.917Z,2.33
2018-11-13T13:09:20.036Z,2.13
2018-11-13T13:11:47.127Z,2.17
2018-11-13T13:14:15.509Z,2.23
2018-11-13T13:16:42.641Z,2.00
2018-11-13T13:19:09.756Z,2.80
2018-11-13T13:21:36.881Z,2.23
2018-11-13T13:24:04.153Z,2.20
2018-11-13T13:26:31.252Z,2.20
2018-11-13T13:28:58.362Z,2.17
2018-11-13T13:31:25.472Z,2.20
2018-11-13T13:33:52.609Z,2.50
2018-11-13T13:36:19.721Z,2.27
2018-11-13T13:38:46.955Z,2.40
2018-11-13T13:41:13.942Z,2.00
2018-11-13T13:43:41.053Z,2.13
2018-11-13T13:46:08.176Z,2.30
2018-11-13T13:48:35.282Z,2.13
2018-11-13T13:51:02.382Z,2.50
2018-11-13T13:53:29.494Z,2.33
2018-11-13T13:55:56.594Z,2.33
2018-11-13T13:58:24.400Z,2.90
2018-11-13T14:00:52.220Z,2.80
2018-11-13T14:03:19.236Z,2.40
2018-11-13T14:05:46.833Z,2.80
2018-11-13T14:08:14.649Z,2.87
2018-11-13T14:10:42.108Z,2.73
2018-11-13T14:13:09.529Z,3.40
2018-11-13T14:15:36.746Z,2.60
2018-11-13T14:18:03.753Z,2.90
2018-11-13T14:20:30.856Z,2.57
2018-11-13T14:22:57.961Z,2.90
2018-11-13T14:25:25.089Z,2.53
2018-11-13T14:27:52.181Z,2.93
2018-11-13T14:30:24.423Z,2.83
2018-11-13T14:32:52.180Z,3.40
2018-11-13T14:35:19.341Z,2.73
2018-11-13T14:37:46.993Z,2.93
2018-11-13T14:40:24.374Z,3.13
2018-11-13T14:42:51.497Z,3.10
2018-11-13T14:45:19.613Z,3.33
2018-11-13T14:47:47.485Z,2.70
2018-11-13T14:50:16.281Z,3.13
2018-11-13T14:52:43.832Z,3.10
2018-11-13T14:55:13.732Z,3.23
2018-11-13T14:57:40.964Z,3.17
2018-11-13T15:00:11.520Z,3.00
2018-11-13T15:02:39.193Z,3.07
2018-11-13T15:05:07.464Z,3.27
2018-11-13T15:07:34.576Z,2.97
2018-11-13T15:10:02.443Z,3.10
2018-11-13T15:12:29.537Z,3.10
2018-11-13T15:14:56.629Z,3.50
2018-11-13T15:17:23.721Z,3.17
2018-11-13T15:19:50.836Z,2.77
2018-11-13T15:22:17.953Z,3.20
2018-11-13T15:24:45.021Z,2.83
2018-11-13T15:27:13.125Z,3.10
2018-11-13T15:29:40.224Z,3.07
2018-11-13T15:32:07.698Z,2.90
2018-11-13T15:34:34.785Z,2.70
2018-11-13T15:37:01.865Z,3.03
2018-11-13T15:39:28.954Z,3.50
2018-11-13T15:41:56.044Z,3.10
2018-11-13T15:44:23.174Z,3.20
2018-11-13T15:46:50.232Z,3.00
2018-11-13T15:49:17.325Z,3.27
2018-11-13T15:51:44.530Z,3.10
2018-11-13T15:54:11.509Z,2.83
2018-11-13T15:56:38.610Z,3.10
2018-11-13T15:59:05.693Z,3.10
2018-11-13T16:01:32.836Z,2.63
2018-11-13T16:03:59.929Z,3.93
2018-11-13T16:06:27.083Z,3.57
2018-11-13T16:08:54.101Z,3.70
2018-11-13T16:11:21.187Z,3.43
2018-11-13T16:13:48.272Z,3.90
2018-11-13T16:16:15.391Z,3.63
2018-11-13T16:18:42.556Z,3.40
2018-11-13T16:21:09.629Z,3.47
2018-11-13T16:23:36.644Z,3.70
2018-11-13T16:26:04.205Z,3.30
2018-11-13T16:28:31.298Z,3.30
2018-11-13T16:30:58.538Z,3.30
2018-11-13T16:33:25.489Z,3.73
2018-11-13T16:35:52.625Z,4.00
2018-11-13T16:38:19.857Z,3.70
2018-11-13T16:40:46.893Z,3.63
2018-11-13T16:43:14.002Z,3.60
2018-11-13T16:45:41.130Z,4.00
2018-11-13T16:48:08.299Z,3.93
2018-11-13T16:50:36.504Z,4.00
2018-11-13T16:53:04.197Z,3.90
2018-11-13T16:55:36.916Z,4.03
2018-11-13T16:58:05.388Z,3.90
2018-11-13T17:00:32.564Z,3.90
2018-11-13T17:02:59.690Z,4.10
2018-11-13T17:05:27.613Z,4.50
2018-11-13T17:07:54.662Z,3.70
2018-11-13T17:10:30.520Z,3.83
2018-11-13T17:12:58.362Z,3.93
2018-11-13T17:15:26.809Z,4.03
2018-11-13T17:17:55.114Z,3.93
2018-11-13T17:20:22.346Z,3.43
2018-11-13T17:22:49.994Z,3.67
2018-11-13T17:25:18.472Z,4.27
2018-11-13T17:27:46.544Z,3.90
2018-11-13T17:30:19.254Z,4.10
2018-11-13T17:32:45.150Z,4.03
2018-11-13T17:35:13.675Z,3.87
2018-11-13T17:37:41.126Z,4.17
2018-11-13T17:40:13.505Z,4.47
2018-11-13T17:42:40.916Z,4.50
2018-11-13T17:45:10.281Z,4.63
2018-11-13T17:47:37.497Z,4.90
2018-11-13T17:50:09.757Z,5.00
2018-11-13T17:52:36.843Z,4.73
2018-11-13T17:55:04.457Z,5.40
2018-11-13T17:57:31.564Z,5.80
2018-11-13T17:59:58.661Z,5.50
2018-11-13T18:02:25.792Z,5.57
2018-11-13T18:04:52.884Z,6.33
2018-11-13T18:07:19.989Z,6.20
2018-11-13T18:09:47.049Z,6.13
2018-11-13T18:12:14.153Z,5.63
2018-11-13T18:14:41.260Z,5.67
2018-11-13T18:17:08.393Z,6.40
2018-11-13T18:19:35.502Z,6.10
2018-11-13T18:22:02.767Z,5.23
2018-11-13T18:24:29.718Z,5.60
2018-11-13T18:26:56.809Z,6.20
2018-11-13T18:29:23.885Z,6.13
2018-11-13T18:31:50.981Z,6.23
2018-11-13T18:34:18.077Z,6.07
2018-11-13T18:36:45.176Z,5.80
2018-11-13T18:39:12.462Z,5.53
2018-11-13T18:41:39.381Z,6.10
2018-11-13T18:44:06.753Z,6.17
2018-11-13T18:46:33.840Z,6.10
2018-11-13T18:49:00.929Z,6.50
2018-11-13T18:51:28.284Z,6.47
2018-11-13T18:53:55.381Z,6.37
2018-11-13T18:56:22.481Z,7.30
2018-11-13T18:58:49.617Z,6.60
2018-11-13T19:01:16.738Z,7.00
2018-11-13T19:03:45.187Z,7.70
2018-11-13T19:06:12.294Z,7.23
2018-11-13T19:08:39.404Z,8.00
2018-11-13T19:11:06.627Z,9.07
2018-11-13T19:13:33.637Z,10.13
2018-11-13T19:16:02.926Z,9.87
2018-11-13T19:18:30.382Z,8.97
2018-11-13T19:20:57.234Z,10.07
2018-11-13T19:23:24.336Z,9.30
2018-11-13T19:25:51.527Z,9.47
2018-11-13T19:28:18.622Z,8.87
2018-11-13T19:30:45.784Z,9.07
2018-11-13T19:33:12.876Z,8.20
2018-11-13T19:35:40.241Z,8.47
2018-11-13T19:38:07.088Z,9.30
2018-11-13T19:40:34.800Z,9.73
2018-11-13T19:43:03.486Z,9.57
2018-11-13T19:45:30.574Z,10.17
2018-11-13T19:47:57.652Z,11.27
2018-11-13T19:50:26.290Z,11.13
2018-11-13T19:52:53.180Z,11.27
2018-11-13T19:55:20.965Z,11.03
2018-11-13T19:57:48.525Z,10.97
2018-11-13T20:00:17.932Z,10.67
2018-11-13T20:02:45.828Z,10.63
2018-11-13T20:05:12.937Z,10.63
2018-11-13T20:07:40.020Z,11.87
2018-11-13T20:10:11.027Z,11.50
2018-11-13T20:12:38.134Z,10.57
2018-11-13T20:15:05.984Z,10.87
2018-11-13T20:17:33.072Z,10.90
2018-11-13T20:20:00.180Z,11.50
2018-11-13T20:22:27.570Z,11.55
2018-11-13T20:24:54.376Z,11.47
2018-11-13T20:27:21.469Z,12.50
2018-11-13T20:29:48.556Z,11.30
2018-11-13T20:32:15.653Z,11.15
2018-11-13T20:34:42.749Z,12.17
2018-11-13T20:37:09.849Z,11.83
2018-11-13T20:39:36.969Z,13.07
2018-11-13T20:42:04.089Z,11.50
2018-11-13T20:44:31.197Z,12.30
2018-11-13T20:46:58.273Z,11.27
2018-11-13T20:49:25.368Z,9.83
2018-11-13T20:51:52.444Z,11.43
2018-11-13T20:54:19.572Z,10.40
2018-11-13T20:56:46.668Z,10.87
2018-11-13T20:59:13.773Z,10.70
2018-11-13T21:01:40.918Z,11.27
2018-11-13T21:04:07.961Z,11.20
2018-11-13T21:06:35.052Z,11.80
2018-11-13T21:09:02.193Z,11.90
2018-11-13T21:11:29.335Z,11.67
2018-11-13T21:13:56.417Z,12.33
2018-11-13T21:16:23.523Z,12.07
2018-11-13T21:18:50.628Z,12.33
2018-11-13T21:21:17.741Z,11.50
2018-11-13T21:23:44.936Z,11.93
2018-11-13T21:26:11.962Z,11.30
2018-11-13T21:28:39.049Z,12.10
2018-11-13T21:31:06.153Z,10.53
2018-11-13T21:33:33.263Z,12.50
2018-11-13T21:36:00.368Z,12.23
2018-11-13T21:38:27.491Z,13.30
2018-11-13T21:40:54.612Z,11.80
2018-11-13T21:43:21.735Z,12.03
2018-11-13T21:45:48.832Z,11.77
2018-11-13T21:48:15.940Z,10.93
2018-11-13T21:50:43.067Z,10.67
2018-11-13T21:53:10.144Z,10.77
2018-11-13T21:55:37.239Z,10.50
2018-11-13T21:58:04.389Z,10.50
2018-11-13T22:00:32.892Z,11.13
2018-11-13T22:03:02.327Z,10.30
2018-11-13T22:05:30.075Z,11.40
2018-11-13T22:07:57.188Z,10.93
2018-11-13T22:10:24.302Z,10.17
2018-11-13T22:12:51.406Z,10.37
2018-11-13T22:15:19.911Z,10.53
2018-11-13T22:17:47.017Z,10.43
2018-11-13T22:20:15.412Z,9.77
2018-11-13T22:22:42.532Z,9.93
2018-11-13T22:25:13.211Z,10.50
2018-11-13T22:27:40.963Z,9.37
2018-11-13T22:30:10.058Z,10.60
2018-11-13T22:32:37.824Z,10.10
2018-11-13T22:35:06.165Z,10.30
2018-11-13T22:37:33.292Z,10.67
2018-11-13T22:40:00.429Z,11.23
2018-11-13T22:42:27.521Z,10.37
2018-11-13T22:44:54.611Z,11.00
2018-11-13T22:47:21.710Z,10.40
2018-11-13T22:49:48.801Z,10.53
2018-11-13T22:52:15.876Z,10.63
2018-11-13T22:54:42.982Z,10.57
2018-11-13T22:57:10.125Z,10.10
2018-11-13T22:59:37.193Z,10.67
2018-11-13T23:02:04.292Z,10.70
2018-11-13T23:04:31.392Z,10.63
2018-11-13T23:06:58.493Z,11.33
2018-11-13T23:09:25.586Z,10.20
2018-11-13T23:11:52.675Z,10.47
2018-11-13T23:14:19.760Z,10.93
2018-11-13T23:16:46.852Z,11.37
2018-11-13T23:19:13.960Z,10.03
2018-11-13T23:21:41.064Z,10.27
2018-11-13T23:24:08.148Z,9.83
2018-11-13T23:26:35.322Z,10.53
2018-11-13T23:29:02.353Z,9.87
2018-11-13T23:31:29.745Z,10.03
2018-11-13T23:33:56.552Z,10.17
2018-11-13T23:36:23.648Z,10.37
2018-11-13T23:38:50.751Z,10.30
2018-11-13T23:41:17.860Z,10.50
2018-11-13T23:43:44.948Z,9.30
2018-11-13T23:46:12.037Z,10.00
2018-11-13T23:48:39.140Z,10.10
2018-11-13T23:51:06.292Z,10.53
2018-11-13T23:53:33.390Z,10.47
2018-11-13T23:56:00.456Z,10.20
2018-11-13T23:58:27.545Z,10.00
